createdAt,value
2022-12-17T00:01:05.781Z,-6.50
2022-12-17T00:03:52.064Z,-6.50
2022-12-17T00:06:38.352Z,-6.50
2022-12-17T00:09:29.003Z,-6.60
2022-12-17T00:12:14.682Z,-6.60
2022-12-17T00:15:00.044Z,-6.60
2022-12-17T00:17:46.673Z,-6.70
2022-12-17T00:20:32.346Z,-6.70
2022-12-17T00:23:18.514Z,-6.80
2022-12-17T00:26:20.493Z,-6.80
2022-12-17T00:29:05.891Z,-6.80
2022-12-17T00:31:51.151Z,-6.80
2022-12-17T00:34:38.351Z,-6.80
2022-12-17T00:37:23.661Z,-6.80
2022-12-17T00:40:09.245Z,-6.80
2022-12-17T00:42:56.295Z,-6.90
2022-12-17T00:45:41.927Z,-6.90
2022-12-17T00:48:27.559Z,-6.90
2022-12-17T00:51:15.240Z,-7.00
2022-12-17T00:54:00.454Z,-7.00
2022-12-17T00:56:45.941Z,-7.10
2022-12-17T00:59:31.568Z,-7.00
2022-12-17T01:02:18.598Z,-7.00
2022-12-17T01:05:04.721Z,-7.00
2022-12-17T01:07:52.402Z,-7.10
2022-12-17T01:10:37.147Z,-7.00
2022-12-17T01:13:22.450Z,-7.00
2022-12-17T01:16:07.778Z,-7.00
2022-12-17T01:18:53.074Z,-7.00
2022-12-17T01:21:42.250Z,-7.00
2022-12-17T01:24:29.222Z,-7.00
2022-12-17T01:27:14.946Z,-7.10
2022-12-17T01:29:59.451Z,-7.10
2022-12-17T01:32:44.685Z,-7.10
2022-12-17T01:35:29.975Z,-7.20
2022-12-17T01:38:16.831Z,-7.30
2022-12-17T01:41:03.536Z,-7.30
2022-12-17T01:43:54.421Z,-7.30
2022-12-17T01:46:41.353Z,-7.30
2022-12-17T01:49:29.374Z,-7.40
2022-12-17T01:52:16.468Z,-7.40
2022-12-17T01:55:01.960Z,-7.40
2022-12-17T01:57:48.929Z,-7.40
2022-12-17T02:00:36.199Z,-7.50
2022-12-17T02:03:22.617Z,-7.50
2022-12-17T02:06:18.596Z,-7.50
2022-12-17T02:09:13.714Z,-7.60
2022-12-17T02:12:10.635Z,-7.60
2022-12-17T02:15:02.785Z,-7.60
2022-12-17T02:17:55.465Z,-7.60
2022-12-17T02:20:47.981Z,-7.60
2022-12-17T02:23:48.048Z,-7.60
2022-12-17T02:26:39.645Z,-7.60
2022-12-17T02:29:27.621Z,-7.60
2022-12-17T02:32:13.346Z,-7.60
2022-12-17T02:35:03.004Z,-7.70
2022-12-17T02:37:54.549Z,-7.70
2022-12-17T02:40:42.548Z,-7.80
2022-12-17T02:43:29.851Z,-7.80
2022-12-17T02:46:16.879Z,-7.80
2022-12-17T02:49:02.282Z,-7.80
2022-12-17T02:51:51.521Z,-7.80
2022-12-17T02:54:36.731Z,-7.80
2022-12-17T02:57:23.545Z,-7.90
2022-12-17T03:00:23.472Z,-7.90
2022-12-17T03:03:10.604Z,-7.90
2022-12-17T03:05:56.038Z,-8.00
2022-12-17T03:08:41.685Z,-8.00
2022-12-17T03:11:27.270Z,-8.00
2022-12-17T03:14:12.883Z,-8.00
2022-12-17T03:16:58.293Z,-8.10
2022-12-17T03:19:45.232Z,-8.10
2022-12-17T03:22:30.882Z,-8.10
2022-12-17T03:25:16.412Z,-8.20
2022-12-17T03:28:02.031Z,-8.20
2022-12-17T03:30:49.327Z,-8.20
2022-12-17T03:33:35.617Z,-8.20
2022-12-17T03:36:22.815Z,-8.20
2022-12-17T03:39:08.081Z,-8.20
2022-12-17T03:41:53.929Z,-8.20
2022-12-17T03:44:39.360Z,-8.20
2022-12-17T03:47:24.823Z,-8.20
2022-12-17T03:50:10.528Z,-8.20
2022-12-17T03:52:57.228Z,-8.20
2022-12-17T03:55:42.773Z,-8.20
2022-12-17T03:58:28.291Z,-8.30
2022-12-17T04:01:13.849Z,-8.30
2022-12-17T04:03:59.290Z,-8.40
2022-12-17T04:06:44.836Z,-8.40
2022-12-17T04:09:31.625Z,-8.50
2022-12-17T04:12:16.477Z,-8.60
2022-12-17T04:14:58.357Z,-8.60
2022-12-17T04:17:43.659Z,-8.60
2022-12-17T04:20:29.568Z,-8.60
2022-12-17T04:23:15.159Z,-8.60
2022-12-17T04:26:02.112Z,-8.50
2022-12-17T04:28:47.294Z,-8.60
2022-12-17T04:31:41.044Z,-8.50
2022-12-17T04:34:26.330Z,-8.60
2022-12-17T04:37:11.798Z,-8.50
2022-12-17T04:39:57.192Z,-8.50
2022-12-17T04:42:44.092Z,-8.50
2022-12-17T04:45:29.467Z,-8.50
2022-12-17T04:48:20.133Z,-8.50
2022-12-17T04:51:05.706Z,-8.50
2022-12-17T04:53:51.273Z,-8.50
2022-12-17T04:56:37.915Z,-8.50
2022-12-17T04:59:24.910Z,-8.60
2022-12-17T05:02:10.268Z,-8.60
2022-12-17T05:04:55.580Z,-8.60
2022-12-17T05:07:40.860Z,-8.60
2022-12-17T05:10:26.879Z,-8.70
2022-12-17T05:13:15.592Z,-8.70
2022-12-17T05:16:02.353Z,-8.70
2022-12-17T05:18:47.721Z,-8.70
2022-12-17T05:21:33.710Z,-8.70
2022-12-17T05:24:19.161Z,-8.70
2022-12-17T05:27:04.703Z,-8.70
2022-12-17T05:29:50.247Z,-8.70
2022-12-17T05:32:36.983Z,-8.70
2022-12-17T05:35:19.213Z,-8.70
2022-12-17T05:38:04.627Z,-8.70
2022-12-17T05:40:49.946Z,-8.80
2022-12-17T05:43:35.640Z,-8.70
2022-12-17T05:46:21.601Z,-8.70
2022-12-17T05:49:08.559Z,-8.80
2022-12-17T05:51:53.771Z,-8.80
2022-12-17T05:54:39.068Z,-8.80
2022-12-17T05:57:24.330Z,-8.80
2022-12-17T06:00:09.907Z,-8.80
2022-12-17T06:02:54.979Z,-8.90
2022-12-17T06:05:41.826Z,-8.90
2022-12-17T06:08:27.782Z,-8.90
2022-12-17T06:11:16.110Z,-9.00
2022-12-17T06:14:01.514Z,-9.00
2022-12-17T06:16:46.698Z,-9.10
2022-12-17T06:19:32.017Z,-9.10
2022-12-17T06:22:19.547Z,-9.10
2022-12-17T06:25:04.867Z,-9.10
2022-12-17T06:27:50.145Z,-9.00
2022-12-17T06:30:36.044Z,-9.10
2022-12-17T06:33:23.032Z,-9.10
2022-12-17T06:36:10.580Z,-9.10
2022-12-17T06:38:57.356Z,-9.20
2022-12-17T06:41:42.935Z,-9.20
2022-12-17T06:44:28.524Z,-9.20
2022-12-17T06:47:14.957Z,-9.20
2022-12-17T06:50:01.563Z,-9.30
2022-12-17T06:52:47.136Z,-9.30
2022-12-17T06:55:34.227Z,-9.30
2022-12-17T06:58:20.327Z,-9.30
2022-12-17T07:01:05.783Z,-9.30
2022-12-17T07:03:51.179Z,-9.30
2022-12-17T07:06:36.773Z,-9.30
2022-12-17T07:09:22.460Z,-9.30
2022-12-17T07:12:09.017Z,-9.40
2022-12-17T07:14:54.297Z,-9.40
2022-12-17T07:17:42.144Z,-9.50
2022-12-17T07:20:29.038Z,-9.50
2022-12-17T07:23:14.750Z,-9.60
2022-12-17T07:26:00.515Z,-9.60
2022-12-17T07:28:47.296Z,-9.60
2022-12-17T07:31:32.840Z,-9.70
2022-12-17T07:34:18.161Z,-9.70
2022-12-17T07:37:03.547Z,-9.70
2022-12-17T07:39:48.903Z,-9.70
2022-12-17T07:42:34.398Z,-9.70
2022-12-17T07:45:21.186Z,-9.60
2022-12-17T07:48:10.906Z,-9.60
2022-12-17T07:50:56.342Z,-9.60
2022-12-17T07:53:41.896Z,-9.60
2022-12-17T07:56:27.511Z,-9.50
2022-12-17T07:59:13.107Z,-9.50
2022-12-17T08:02:03.017Z,-9.40
2022-12-17T08:04:48.641Z,-9.40
2022-12-17T08:07:34.129Z,-9.40
2022-12-17T08:10:27.890Z,-9.40
2022-12-17T08:13:15.748Z,-9.20
2022-12-17T08:16:01.445Z,-9.20
2022-12-17T08:18:48.548Z,-9.00
2022-12-17T08:21:33.816Z,-8.90
2022-12-17T08:24:19.313Z,-8.80
2022-12-17T08:27:05.676Z,-8.60
2022-12-17T08:29:51.063Z,-8.50
2022-12-17T08:32:36.797Z,-8.50
2022-12-17T08:35:29.599Z,-8.40
2022-12-17T08:38:20.080Z,-8.30
2022-12-17T08:41:05.429Z,-8.20
2022-12-17T08:43:51.226Z,-8.10
2022-12-17T08:46:38.435Z,-8.00
2022-12-17T08:49:24.172Z,-8.00
2022-12-17T08:52:10.967Z,-7.90
2022-12-17T08:54:52.795Z,-7.80
2022-12-17T08:57:37.551Z,-7.70
2022-12-17T09:00:38.105Z,-7.70
2022-12-17T09:03:23.970Z,-7.60
2022-12-17T09:06:11.131Z,-7.50
2022-12-17T09:08:58.028Z,-7.40
2022-12-17T09:11:43.418Z,-7.30
2022-12-17T09:14:28.977Z,-7.20
2022-12-17T09:17:14.395Z,-7.10
2022-12-17T09:19:59.878Z,-7.10
2022-12-17T09:22:45.376Z,-7.00
2022-12-17T09:25:32.268Z,-7.00
2022-12-17T09:28:19.266Z,-6.90
2022-12-17T09:31:05.216Z,-6.90
2022-12-17T09:33:51.086Z,-6.80
2022-12-17T09:36:36.553Z,-6.70
2022-12-17T09:39:22.620Z,-6.60
2022-12-17T09:42:15.467Z,-6.50
2022-12-17T09:45:06.613Z,-6.40
2022-12-17T09:48:01.379Z,-6.30
2022-12-17T09:50:47.161Z,-6.20
2022-12-17T09:53:40.866Z,-6.20
2022-12-17T09:56:30.422Z,-6.10
2022-12-17T09:59:17.067Z,-6.00
2022-12-17T10:02:11.336Z,-5.90
2022-12-17T10:05:01.074Z,-5.70
2022-12-17T10:07:52.144Z,-5.70
2022-12-17T10:10:40.531Z,-5.50
2022-12-17T10:13:30.224Z,-5.40
2022-12-17T10:16:25.932Z,-5.30
2022-12-17T10:19:11.252Z,-5.30
2022-12-17T10:21:58.929Z,-5.20
2022-12-17T10:24:44.501Z,-5.10
2022-12-17T10:27:30.287Z,-5.00
2022-12-17T10:30:15.869Z,-4.90
2022-12-17T10:33:12.973Z,-4.80
2022-12-17T10:35:59.414Z,-4.80
2022-12-17T10:38:46.878Z,-4.70
2022-12-17T10:41:37.595Z,-4.70
2022-12-17T10:44:42.463Z,-4.60
2022-12-17T10:47:30.877Z,-4.50
2022-12-17T10:50:18.847Z,-4.50
2022-12-17T10:53:05.856Z,-4.40
2022-12-17T10:55:53.189Z,-4.40
2022-12-17T10:58:40.696Z,-4.30
2022-12-17T11:01:30.301Z,-4.30
2022-12-17T11:04:17.405Z,-4.20
2022-12-17T11:07:06.709Z,-4.20
2022-12-17T11:10:08.655Z,-4.10
2022-12-17T11:12:58.445Z,-4.00
2022-12-17T11:15:50.571Z,-4.00
2022-12-17T11:18:40.388Z,-3.90
2022-12-17T11:21:30.467Z,-3.80
2022-12-17T11:24:22.735Z,-3.80
2022-12-17T11:27:12.016Z,-3.70
2022-12-17T11:29:57.569Z,-3.70
2022-12-17T11:33:07.938Z,-3.60
2022-12-17T11:36:00.093Z,-3.50
2022-12-17T11:38:53.068Z,-3.50
2022-12-17T11:41:54.580Z,-3.40
2022-12-17T11:44:53.895Z,-3.40
2022-12-17T11:47:47.275Z,-3.30
2022-12-17T11:50:43.226Z,-3.30
2022-12-17T11:53:45.677Z,-3.20
2022-12-17T11:56:39.362Z,-3.20
2022-12-17T11:59:34.923Z,-3.10
2022-12-17T12:02:34.320Z,-3.00
2022-12-17T12:05:36.256Z,-2.90
2022-12-17T12:08:32.478Z,-2.90
2022-12-17T12:11:31.267Z,-2.90
2022-12-17T12:14:25.764Z,-2.80
2022-12-17T12:17:20.543Z,-2.80
2022-12-17T12:20:10.860Z,-2.70
2022-12-17T12:23:03.866Z,-2.70
2022-12-17T12:25:59.985Z,-2.70
2022-12-17T12:28:51.804Z,-2.60
2022-12-17T12:31:50.236Z,-2.60
2022-12-17T12:34:44.341Z,-2.60
2022-12-17T12:37:32.442Z,-2.50
2022-12-17T12:40:26.295Z,-2.50
2022-12-17T12:43:20.391Z,-2.50
2022-12-17T12:46:14.252Z,-2.40
2022-12-17T12:49:03.435Z,-2.30
2022-12-17T12:51:54.189Z,-2.30
2022-12-17T12:54:43.815Z,-2.20
2022-12-17T12:57:50.793Z,-2.20
2022-12-17T13:00:48.776Z,-2.20
2022-12-17T13:03:44.091Z,-2.20
2022-12-17T13:06:13.190Z,-2.20
2022-12-17T13:08:43.072Z,-2.20
2022-12-17T13:11:26.748Z,-2.20
2022-12-17T13:13:56.850Z,-2.20
2022-12-17T13:16:34.799Z,-2.10
2022-12-17T13:19:04.689Z,-2.10
2022-12-17T13:21:32.736Z,-2.20
2022-12-17T13:24:11.648Z,-2.10
2022-12-17T13:26:46.168Z,-2.10
2022-12-17T13:29:24.137Z,-2.10
2022-12-17T13:32:08.153Z,-2.10
2022-12-17T13:34:53.753Z,-2.10
2022-12-17T13:37:31.518Z,-2.10
2022-12-17T13:40:14.515Z,-2.10
2022-12-17T13:42:47.225Z,-2.10
2022-12-17T13:45:17.888Z,-2.10
2022-12-17T13:47:55.324Z,-2.10
2022-12-17T13:50:35.106Z,-2.00
2022-12-17T13:53:11.145Z,-2.00
2022-12-17T13:55:40.554Z,-2.10
2022-12-17T13:58:22.958Z,-2.00
2022-12-17T14:00:51.311Z,-2.00
2022-12-17T14:03:43.006Z,-2.00
2022-12-17T14:06:12.820Z,-2.00
2022-12-17T14:08:41.350Z,-2.00
2022-12-17T14:11:30.321Z,-2.10
2022-12-17T14:13:58.628Z,-2.10
2022-12-17T14:16:26.668Z,-2.10
2022-12-17T14:18:57.253Z,-2.10
2022-12-17T14:21:26.942Z,-2.10
2022-12-17T14:23:55.852Z,-2.10
2022-12-17T14:26:25.203Z,-2.10
2022-12-17T14:28:55.561Z,-2.10
2022-12-17T14:31:27.765Z,-2.10
2022-12-17T14:34:07.447Z,-2.10
2022-12-17T14:36:37.470Z,-2.20
2022-12-17T14:39:16.133Z,-2.10
2022-12-17T14:42:03.067Z,-2.10
2022-12-17T14:44:32.215Z,-2.20
2022-12-17T14:47:12.603Z,-2.20
2022-12-17T14:49:55.775Z,-2.30
2022-12-17T14:52:34.456Z,-2.30
2022-12-17T14:55:02.904Z,-2.30
2022-12-17T14:57:32.237Z,-2.40
2022-12-17T15:00:00.225Z,-2.40
2022-12-17T15:02:31.379Z,-2.50
2022-12-17T15:05:02.672Z,-2.50
2022-12-17T15:07:32.487Z,-2.50
2022-12-17T15:10:01.597Z,-2.60
2022-12-17T15:12:31.733Z,-2.60
2022-12-17T15:14:59.678Z,-2.60
2022-12-17T15:17:27.664Z,-2.70
2022-12-17T15:19:56.402Z,-2.70
2022-12-17T15:22:24.592Z,-2.80
2022-12-17T15:24:52.537Z,-2.90
2022-12-17T15:27:20.478Z,-2.90
2022-12-17T15:29:49.884Z,-2.90
2022-12-17T15:32:20.187Z,-3.00
2022-12-17T15:34:48.214Z,-3.00
2022-12-17T15:37:21.106Z,-3.00
2022-12-17T15:39:52.042Z,-3.00
2022-12-17T15:42:37.290Z,-3.10
2022-12-17T15:45:07.907Z,-3.10
2022-12-17T15:47:36.020Z,-3.20
2022-12-17T15:50:04.117Z,-3.20
2022-12-17T15:52:32.598Z,-3.30
2022-12-17T15:55:00.596Z,-3.30
2022-12-17T15:57:28.596Z,-3.30
2022-12-17T15:59:56.574Z,-3.40
2022-12-17T16:02:26.075Z,-3.40
2022-12-17T16:04:54.294Z,-3.40
2022-12-17T16:07:22.257Z,-3.50
2022-12-17T16:09:50.235Z,-3.50
2022-12-17T16:12:18.196Z,-3.50
2022-12-17T16:14:46.116Z,-3.60
2022-12-17T16:17:14.428Z,-3.60
2022-12-17T16:19:43.736Z,-3.60
2022-12-17T16:22:11.698Z,-3.60
2022-12-17T16:24:40.844Z,-3.70
2022-12-17T16:27:09.066Z,-3.70
2022-12-17T16:29:36.970Z,-3.80
2022-12-17T16:32:05.198Z,-3.80
2022-12-17T16:34:33.119Z,-3.80
2022-12-17T16:37:02.504Z,-3.80
2022-12-17T16:39:30.508Z,-3.80
2022-12-17T16:41:58.488Z,-3.80
2022-12-17T16:44:26.477Z,-3.90
2022-12-17T16:46:54.577Z,-3.90
2022-12-17T16:49:24.429Z,-4.00
2022-12-17T16:51:53.942Z,-4.00
2022-12-17T16:54:26.005Z,-4.10
2022-12-17T16:56:54.636Z,-4.10
2022-12-17T16:59:23.409Z,-4.10
2022-12-17T17:01:53.117Z,-4.20
2022-12-17T17:04:23.018Z,-4.20
2022-12-17T17:06:52.378Z,-4.20
2022-12-17T17:09:20.509Z,-4.20
2022-12-17T17:11:51.986Z,-4.10
2022-12-17T17:14:20.374Z,-4.20
2022-12-17T17:16:48.825Z,-4.20
2022-12-17T17:19:17.116Z,-4.20
2022-12-17T17:21:51.705Z,-4.20
2022-12-17T17:24:22.881Z,-4.20
2022-12-17T17:26:53.760Z,-4.20
2022-12-17T17:29:22.230Z,-4.20
2022-12-17T17:32:09.995Z,-4.20
2022-12-17T17:34:38.271Z,-4.20
2022-12-17T17:37:06.207Z,-4.30
2022-12-17T17:39:34.420Z,-4.30
2022-12-17T17:42:04.356Z,-4.30
2022-12-17T17:44:32.331Z,-4.30
2022-12-17T17:47:00.340Z,-4.40
2022-12-17T17:49:28.850Z,-4.30
2022-12-17T17:52:12.449Z,-4.40
2022-12-17T17:54:40.824Z,-4.40
2022-12-17T17:57:11.072Z,-4.40
2022-12-17T17:59:40.268Z,-4.40
2022-12-17T18:02:09.182Z,-4.50
2022-12-17T18:04:37.476Z,-4.50
2022-12-17T18:09:53.350Z,-4.50
2022-12-17T18:12:41.707Z,-4.60
2022-12-17T18:15:15.411Z,-4.60
2022-12-17T18:17:45.260Z,-4.50
2022-12-17T18:20:13.695Z,-4.60
2022-12-17T18:22:41.764Z,-4.60
2022-12-17T18:25:10.644Z,-4.60
2022-12-17T18:27:41.098Z,-4.70
2022-12-17T18:30:10.425Z,-4.70
2022-12-17T18:32:38.345Z,-4.70
2022-12-17T18:35:07.195Z,-4.70
2022-12-17T18:37:35.184Z,-4.80
2022-12-17T18:40:03.271Z,-4.80
2022-12-17T18:42:48.631Z,-4.80
2022-12-17T18:45:18.056Z,-4.90
2022-12-17T18:47:46.008Z,-4.90
2022-12-17T18:50:14.345Z,-4.90
2022-12-17T18:52:42.404Z,-4.90
2022-12-17T18:55:10.457Z,-4.90
2022-12-17T18:57:38.472Z,-5.00
2022-12-17T19:00:07.925Z,-5.00
2022-12-17T19:02:37.309Z,-5.00
2022-12-17T19:05:05.715Z,-5.00
2022-12-17T19:07:33.677Z,-5.10
2022-12-17T19:10:01.624Z,-5.00
2022-12-17T19:12:29.595Z,-5.10
2022-12-17T19:14:57.549Z,-5.10
2022-12-17T19:17:26.381Z,-5.10
2022-12-17T19:19:55.697Z,-5.20
2022-12-17T19:22:23.644Z,-5.20
2022-12-17T19:24:51.628Z,-5.20
2022-12-17T19:27:19.541Z,-5.20
2022-12-17T19:29:49.757Z,-5.20
2022-12-17T19:32:21.057Z,-5.30
2022-12-17T19:34:49.022Z,-5.30
2022-12-17T19:37:18.866Z,-5.30
2022-12-17T19:39:46.818Z,-5.30
2022-12-17T19:42:24.788Z,-5.40
2022-12-17T19:44:53.653Z,-5.40
2022-12-17T19:47:21.809Z,-5.50
2022-12-17T19:49:49.965Z,-5.50
2022-12-17T19:52:19.739Z,-5.50
2022-12-17T19:54:49.740Z,-5.50
2022-12-17T19:57:17.760Z,-5.50
2022-12-17T19:59:45.697Z,-5.60
2022-12-17T20:02:15.609Z,-5.60
2022-12-17T20:04:43.796Z,-5.70
2022-12-17T20:07:11.705Z,-5.70
2022-12-17T20:09:44.030Z,-5.70
2022-12-17T20:12:12.375Z,-5.70
2022-12-17T20:14:40.346Z,-5.70
2022-12-17T20:17:08.485Z,-5.70
2022-12-17T20:19:37.228Z,-5.70
2022-12-17T20:22:06.877Z,-5.70
2022-12-17T20:24:35.026Z,-5.80
2022-12-17T20:27:04.554Z,-5.80
2022-12-17T20:29:32.492Z,-5.80
2022-12-17T20:32:00.468Z,-5.90
2022-12-17T20:34:28.436Z,-5.90
2022-12-17T20:36:56.407Z,-5.90
2022-12-17T20:39:27.597Z,-5.90
2022-12-17T20:41:56.770Z,-5.90
2022-12-17T20:44:26.115Z,-6.00
2022-12-17T20:46:54.179Z,-6.00
2022-12-17T20:49:22.298Z,-6.00
2022-12-17T20:51:50.199Z,-6.10
2022-12-17T20:54:18.175Z,-6.00
2022-12-17T20:56:46.121Z,-6.10
2022-12-17T20:59:17.786Z,-6.10
2022-12-17T21:01:54.209Z,-6.20
2022-12-17T21:04:24.002Z,-6.20
2022-12-17T21:06:52.113Z,-6.30
2022-12-17T21:09:20.955Z,-6.30
2022-12-17T21:11:49.390Z,-6.40
2022-12-17T21:14:19.589Z,-6.40
2022-12-17T21:16:49.441Z,-6.50
2022-12-17T21:19:20.125Z,-6.50
2022-12-17T21:21:48.448Z,-6.50
2022-12-17T21:24:16.583Z,-6.50
2022-12-17T21:26:46.878Z,-6.50
2022-12-17T21:29:15.562Z,-6.50
2022-12-17T21:31:45.872Z,-6.50
2022-12-17T21:34:17.421Z,-6.60
2022-12-17T21:36:45.545Z,-6.60
2022-12-17T21:39:14.765Z,-6.60
2022-12-17T21:42:04.757Z,-6.60
2022-12-17T21:44:32.977Z,-6.60
2022-12-17T21:47:02.060Z,-6.70
2022-12-17T21:49:32.534Z,-6.70
2022-12-17T21:52:01.541Z,-6.70
2022-12-17T21:54:29.763Z,-6.70
2022-12-17T21:56:57.696Z,-6.70
2022-12-17T21:59:25.647Z,-6.70
2022-12-17T22:01:57.136Z,-6.70
2022-12-17T22:04:26.419Z,-6.80
2022-12-17T22:07:06.448Z,-6.70
2022-12-17T22:10:24.443Z,-6.80
2022-12-17T22:12:58.537Z,-6.80
2022-12-17T22:15:34.708Z,-6.80
2022-12-17T22:18:08.023Z,-6.80
2022-12-17T22:20:35.999Z,-6.90
2022-12-17T22:23:06.162Z,-6.90
2022-12-17T22:25:37.618Z,-6.90
2022-12-17T22:28:05.852Z,-6.90
2022-12-17T22:30:51.148Z,-6.90
2022-12-17T22:34:22.025Z,-6.90
2022-12-17T22:38:03.330Z,-6.90
2022-12-17T22:43:11.052Z,-6.90
2022-12-17T22:44:36.032Z,-6.90
2022-12-17T22:44:55.935Z,-7.00
2022-12-17T22:47:25.747Z,-7.00
2022-12-17T22:49:53.640Z,-7.00
2022-12-17T22:52:22.188Z,-7.00
2022-12-17T22:54:51.854Z,-7.10
2022-12-17T22:57:37.107Z,-7.10
2022-12-17T23:00:09.866Z,-7.10
2022-12-17T23:02:37.938Z,-7.10
2022-12-17T23:05:06.535Z,-7.20
2022-12-17T23:07:34.467Z,-7.10
2022-12-17T23:10:03.834Z,-7.20
2022-12-17T23:12:49.469Z,-7.20
2022-12-17T23:15:19.853Z,-7.20
2022-12-17T23:17:48.035Z,-7.20
2022-12-17T23:20:16.957Z,-7.20
2022-12-17T23:22:44.950Z,-7.20
2022-12-17T23:25:15.238Z,-7.20
2022-12-17T23:27:43.253Z,-7.30
2022-12-17T23:30:13.292Z,-7.30
2022-12-17T23:32:41.803Z,-7.30
2022-12-17T23:35:10.905Z,-7.30
2022-12-17T23:37:40.145Z,-7.30
2022-12-17T23:40:15.230Z,-7.30
2022-12-17T23:42:43.306Z,-7.30
2022-12-17T23:45:12.056Z,-7.40
2022-12-17T23:47:41.819Z,-7.40
2022-12-17T23:50:11.570Z,-7.40
2022-12-17T23:52:40.347Z,-7.40
2022-12-17T23:55:08.852Z,-7.40
2022-12-17T23:57:38.650Z,-7.40
